createdAt,value
2019-03-09T17:33:04.718Z,74.40
2019-03-09T17:35:33.528Z,75.70
2019-03-09T17:38:02.272Z,76.10
2019-03-09T17:40:31.461Z,76.10
2019-03-09T17:43:00.262Z,75.90
2019-03-09T17:45:29.102Z,75.30
2019-03-09T17:47:57.832Z,75.90
2019-03-09T17:50:26.632Z,76.00
2019-03-09T17:52:55.507Z,76.20
2019-03-09T17:55:24.592Z,75.50
2019-03-09T17:57:53.416Z,75.40
2019-03-09T18:00:23.295Z,75.60
2019-03-09T18:02:55.558Z,75.60
2019-03-09T18:05:24.649Z,75.70
2019-03-09T18:07:53.515Z,75.70
2019-03-09T18:10:39.686Z,75.70
2019-03-09T18:13:08.894Z,76.00
2019-03-09T18:15:38.688Z,76.40
2019-03-09T18:18:07.483Z,76.20
2019-03-09T18:20:36.250Z,76.20
2019-03-09T18:23:05.436Z,76.30
2019-03-09T18:25:34.811Z,76.50
2019-03-09T18:28:03.550Z,75.80
2019-03-09T18:30:32.313Z,75.70
2019-03-09T18:33:01.054Z,75.40
2019-03-09T18:35:29.796Z,75.60
2019-03-09T18:37:59.628Z,74.90
2019-03-09T18:40:28.678Z,75.10
2019-03-09T18:42:57.504Z,74.70
2019-03-09T18:45:26.269Z,74.40
2019-03-09T18:47:55.354Z,74.40
2019-03-09T18:50:24.155Z,74.20
2019-03-09T18:52:53.214Z,74.10
2019-03-09T18:55:22.027Z,73.50
2019-03-09T18:57:51.218Z,73.10
2019-03-09T19:00:20.966Z,72.90
2019-03-09T19:02:49.728Z,72.00
2019-03-09T19:05:18.587Z,71.50
2019-03-09T19:07:47.413Z,71.20
2019-03-09T19:10:16.237Z,71.80
2019-03-09T19:12:44.988Z,71.70
2019-03-09T19:15:14.747Z,72.40
2019-03-09T19:17:44.399Z,71.80
2019-03-09T19:20:13.594Z,71.40
2019-03-09T19:22:43.124Z,71.80
2019-03-09T19:25:11.919Z,72.00
2019-03-09T19:27:40.682Z,71.70
2019-03-09T19:30:11.256Z,71.80
2019-03-09T19:32:39.999Z,71.00
2019-03-09T19:35:08.719Z,71.10
2019-03-09T19:37:37.472Z,71.00
2019-03-09T19:40:07.430Z,70.60
2019-03-09T19:42:36.459Z,69.80
2019-03-09T19:45:06.096Z,70.00
2019-03-09T19:47:34.880Z,69.10
2019-03-09T19:50:03.771Z,69.90
2019-03-09T19:52:32.562Z,69.60
2019-03-09T19:55:01.364Z,70.70
2019-03-09T19:57:30.130Z,70.30
2019-03-09T19:59:58.939Z,70.70
2019-03-09T20:02:27.716Z,70.30
2019-03-09T20:04:56.823Z,71.10
2019-03-09T20:07:25.588Z,71.40
2019-03-09T20:09:54.450Z,70.70
2019-03-09T20:12:23.268Z,70.50
2019-03-09T20:14:52.073Z,70.40
2019-03-09T20:17:20.849Z,69.80
2019-03-09T20:19:49.916Z,69.90
2019-03-09T20:22:18.726Z,68.80
2019-03-09T20:24:47.533Z,69.20
2019-03-09T20:27:16.312Z,68.50
2019-03-09T20:29:45.365Z,68.60
2019-03-09T20:32:15.467Z,68.30
2019-03-09T20:34:45.526Z,68.50
2019-03-09T20:37:14.259Z,68.80
2019-03-09T20:39:43.404Z,69.20
2019-03-09T20:42:12.405Z,70.20
2019-03-09T20:44:41.540Z,71.40
2019-03-09T20:47:10.575Z,73.30
2019-03-09T20:49:39.418Z,76.00
2019-03-09T20:52:08.187Z,78.00
2019-03-09T20:54:37.992Z,81.80
2019-03-09T20:57:06.787Z,84.70
2019-03-09T20:59:35.605Z,86.10
2019-03-09T21:02:04.365Z,87.60
2019-03-09T21:04:33.147Z,88.20
2019-03-09T21:07:01.964Z,88.80
2019-03-09T21:09:30.721Z,89.70
2019-03-09T21:12:00.104Z,90.20
2019-03-09T21:14:28.901Z,90.00
2019-03-09T21:16:59.775Z,90.30
2019-03-09T21:19:26.911Z,90.30
2019-03-09T21:21:55.987Z,90.40
2019-03-09T21:24:25.047Z,90.50
2019-03-09T21:26:53.773Z,90.70
2019-03-09T21:29:22.555Z,90.90
2019-03-09T21:31:51.359Z,91.10
2019-03-09T21:34:20.166Z,91.20
2019-03-09T21:36:48.957Z,91.20
2019-03-09T21:39:17.953Z,91.40
2019-03-09T21:41:46.728Z,91.10
2019-03-09T21:44:15.984Z,91.00
2019-03-09T21:46:45.192Z,91.10
2019-03-09T21:49:13.986Z,91.10
2019-03-09T21:51:43.824Z,91.00
2019-03-09T21:54:12.877Z,91.20
2019-03-09T21:56:41.686Z,91.30
2019-03-09T21:59:10.481Z,91.20
2019-03-09T22:01:40.282Z,91.20
2019-03-09T22:04:09.084Z,91.30
2019-03-09T22:06:37.836Z,91.30
2019-03-09T22:09:06.667Z,91.20
2019-03-09T22:11:54.817Z,91.20
2019-03-09T22:14:23.843Z,91.40
2019-03-09T22:16:56.531Z,91.50
2019-03-09T22:19:21.468Z,91.40
2019-03-09T22:21:51.506Z,91.40
2019-03-09T22:24:20.580Z,91.40
2019-03-09T22:26:50.037Z,91.60
2019-03-09T22:29:18.859Z,91.80
2019-03-09T22:31:47.526Z,91.70
2019-03-09T22:34:16.844Z,91.90
2019-03-09T22:36:45.634Z,92.30
2019-03-09T22:39:14.426Z,92.20
2019-03-09T22:41:43.487Z,92.10
2019-03-09T22:44:12.309Z,92.00
2019-03-09T22:46:41.074Z,92.20
2019-03-09T22:49:10.156Z,91.50
2019-03-09T22:51:38.967Z,91.20
2019-03-09T22:54:20.213Z,91.40
2019-03-09T22:56:50.456Z,91.60
2019-03-09T22:59:19.324Z,91.60
2019-03-09T23:01:48.051Z,91.80
2019-03-09T23:04:17.256Z,91.80
2019-03-09T23:06:46.546Z,91.60
2019-03-09T23:09:15.336Z,91.30
2019-03-09T23:11:44.125Z,91.30
2019-03-09T23:14:25.821Z,91.30
2019-03-09T23:16:54.635Z,91.30
2019-03-09T23:19:23.419Z,91.40
2019-03-09T23:21:52.161Z,91.30
2019-03-09T23:24:20.965Z,91.20
2019-03-09T23:26:51.804Z,91.10
2019-03-09T23:29:19.890Z,91.30
2019-03-09T23:31:48.551Z,91.40
2019-03-09T23:34:17.825Z,91.60
2019-03-09T23:36:47.564Z,91.70
2019-03-09T23:39:17.644Z,91.70
2019-03-09T23:41:46.948Z,91.80
2019-03-09T23:44:15.663Z,91.70
2019-03-09T23:46:44.472Z,91.60
2019-03-09T23:49:14.286Z,91.30
2019-03-09T23:51:43.066Z,90.50
2019-03-09T23:54:11.870Z,89.60
2019-03-09T23:56:40.633Z,89.50
2019-03-09T23:59:09.422Z,88.70
